Airport Name : Husavik

Other Name : Husavik

ICAO : BIHU

IATA : HZK

FAA :

Latitude : 65.952328

Longitude : -17.425978

Country : Iceland

Local Date and Time : 04 Dec 2020 13:36

 

TAF (Terminal Aerodrome Forecast)

TAF BIHU 041303Z 0414/0423 36015G25KT 9999 BKN025 TEMPO 0414/0416 7000 -SHSN BKN014 BECMG 0415/0417 01012KT

 

METAR (METeorological Aerodrome Report)

To Charter a Jet Click here.